Time;durP1;ratioP1;P1;durP2;ratioP2;P2;SDS_P1;SDS_P2;PMS_P1;PMS_P2;Temp;Humidity;BMP_temperature;BMP_pressure;BME280_temperature;BME280_humidity;BME280_pressure;Samples;Min_cycle;Max_cycle;Signal;HPM_P1;HPM_P2
2024/03/20 00:00:35;;;;;;;3.40;2.60;;;;;;;19.90;35.27;93960.91;4975555;28;20042;-68
2024/03/20 00:03:05;;;;;;;2.40;2.20;;;;;;;19.93;35.13;93971.75;4974082;28;20042;-68
2024/03/20 00:05:30;;;;;;;2.97;2.58;;;;;;;19.89;34.97;93967.47;4972704;28;20057;-59
2024/03/20 00:07:56;;;;;;;3.53;3.08;;;;;;;19.88;35.22;93969.38;4974350;28;20030;-59
2024/03/20 00:10:23;;;;;;;4.07;2.78;;;;;;;19.85;35.11;93966.66;4972377;28;20042;-60
2024/03/20 00:12:48;;;;;;;3.47;3.03;;;;;;;19.81;35.49;93968.50;4974404;28;20162;-68
2024/03/20 00:15:35;;;;;;;3.53;3.05;;;;;;;19.79;35.40;93970.81;4975776;28;20046;-69
2024/03/20 00:18:09;;;;;;;3.25;2.95;;;;;;;19.80;35.56;93975.06;4975164;28;20042;-67
2024/03/20 00:20:34;;;;;;;3.63;2.45;;;;;;;19.78;35.43;93975.44;4974563;28;20023;-69
2024/03/20 00:23:00;;;;;;;3.22;2.28;;;;;;;19.78;35.53;93975.44;4975741;28;20113;-68
2024/03/20 00:25:25;;;;;;;3.08;2.50;;;;;;;19.72;35.61;93972.28;4976410;28;20072;-68
2024/03/20 00:28:15;;;;;;;3.85;3.42;;;;;;;19.73;35.29;93979.22;4969524;28;20042;-68
2024/03/20 00:30:41;;;;;;;2.97;2.42;;;;;;;19.75;35.50;93976.91;4976838;28;20046;-68
2024/03/20 00:33:14;;;;;;;3.38;2.75;;;;;;;19.77;35.68;93983.88;4972842;28;20062;-70
2024/03/20 00:35:40;;;;;;;3.67;2.55;;;;;;;19.77;35.45;93978.47;4968259;28;20105;-68
2024/03/20 00:38:33;;;;;;;4.03;2.80;;;;;;;19.78;35.32;93980.03;4953878;28;20038;-69
2024/03/20 00:41:04;;;;;;;2.22;2.03;;;;;;;19.77;35.34;93978.47;4968865;28;20495;-68
2024/03/20 00:43:30;;;;;;;2.83;2.60;;;;;;;19.73;35.51;93979.22;4971454;28;20109;-68
2024/03/20 00:45:55;;;;;;;3.13;2.70;;;;;;;19.76;35.94;93977.69;4972337;28;20053;-69
2024/03/20 00:48:31;;;;;;;2.90;2.55;;;;;;;19.74;35.28;93978.09;4967185;28;20046;-68
2024/03/20 00:51:00;;;;;;;2.90;2.60;;;;;;;19.77;35.37;93981.97;4965261;28;20034;-68
2024/03/20 00:53:29;;;;;;;3.38;2.67;;;;;;;19.78;35.51;93974.66;4966767;28;20030;-68
2024/03/20 00:56:26;;;;;;;3.17;2.72;;;;;;;19.77;35.15;93978.47;4970186;28;20038;-69
2024/03/20 00:58:55;;;;;;;4.07;2.85;;;;;;;19.79;35.42;93981.59;4941824;28;20051;-68
2024/03/20 01:01:42;;;;;;;3.78;2.72;;;;;;;19.77;35.67;93979.25;4942873;28;20145;-69
2024/03/20 01:04:09;;;;;;;3.65;2.55;;;;;;;19.74;35.58;93975.38;4960854;28;20777;-69
2024/03/20 01:06:35;;;;;;;3.30;2.35;;;;;;;19.76;35.69;93972.31;4973181;28;20046;-69
2024/03/20 01:09:21;;;;;;;3.35;3.05;;;;;;;19.78;35.66;93975.44;4968623;28;20056;-69
2024/03/20 01:11:49;;;;;;;3.45;2.67;;;;;;;19.82;35.23;93975.47;4969583;28;20030;-69
2024/03/20 01:14:20;;;;;;;3.38;2.80;;;;;;;19.83;35.31;93971.63;4971604;28;20030;-69
2024/03/20 01:16:48;;;;;;;3.30;2.47;;;;;;;19.82;35.37;93978.16;4970746;28;20743;-69
2024/03/20 01:19:26;;;;;;;2.75;2.35;;;;;;;19.81;35.34;93968.50;4969222;28;20050;-68
2024/03/20 01:22:17;;;;;;;2.70;2.20;;;;;;;19.85;35.42;93970.09;4969606;28;20039;-68
2024/03/20 01:25:03;;;;;;;2.90;2.50;;;;;;;19.86;34.99;93965.47;4967597;28;20396;-60
2024/03/20 01:27:44;;;;;;;2.60;2.17;;;;;;;19.89;35.49;93967.47;4967981;28;20522;-61
2024/03/20 01:30:21;;;;;;;3.35;2.63;;;;;;;19.85;35.54;93961.25;4966499;28;20862;-60
2024/03/20 01:32:58;;;;;;;2.45;2.13;;;;;;;19.82;35.37;93954.66;4965600;28;20041;-60
2024/03/20 01:35:50;;;;;;;3.25;2.67;;;;;;;19.85;35.03;93974.75;4965699;28;20030;-60
2024/03/20 01:38:17;;;;;;;2.38;2.17;;;;;;;;;;4969944;28;20125;-68
2024/03/20 01:41:26;;;;;;;2.70;2.35;;;;;;;19.87;35.21;93967.03;4959223;28;20618;-67
2024/03/20 01:44:31;;;;;;;2.72;2.45;;;;;;;19.87;35.34;93967.03;4974556;28;20038;-69
2024/03/20 01:47:01;;;;;;;3.53;2.63;;;;;;;19.90;35.64;93974.38;4980001;28;20051;-69
2024/03/20 01:49:26;;;;;;;3.42;2.30;;;;;;;19.91;35.12;93979.44;4996651;23;20043;-75
2024/03/20 01:51:53;;;;;;;3.90;2.35;;;;;;;19.91;35.33;93968.63;4993018;28;20100;-75
2024/03/20 01:54:21;;;;;;;2.50;2.10;;;;;;;19.88;35.61;93972.06;4990636;28;20467;-75
2024/03/20 01:56:46;;;;;;;3.10;2.45;;;;;;;19.90;35.41;93966.28;4992115;28;20042;-74
2024/03/20 01:59:12;;;;;;;1.77;1.67;;;;;;;19.91;35.43;93971.34;4996894;28;20030;-74
2024/03/20 02:02:02;;;;;;;2.05;1.85;;;;;;;19.94;35.29;93964.44;4999624;28;20395;-74
2024/03/20 02:04:27;;;;;;;2.53;1.92;;;;;;;19.87;35.75;93950.84;4990590;28;20049;-74
2024/03/20 02:06:53;;;;;;;2.10;1.85;;;;;;;19.91;35.42;93957.84;4997141;28;20364;-73
2024/03/20 02:09:19;;;;;;;3.17;2.60;;;;;;;19.93;35.09;93965.56;4996058;28;20553;-73
2024/03/20 02:11:45;;;;;;;2.38;2.13;;;;;;;19.91;35.23;93960.53;5001044;28;20052;-73
2024/03/20 02:14:10;;;;;;;2.60;2.05;;;;;;;19.92;35.22;93961.31;4995205;28;20373;-73
2024/03/20 02:16:36;;;;;;;2.60;2.40;;;;;;;19.95;35.41;93965.97;4998496;28;20530;-74
2024/03/20 02:19:02;;;;;;;2.70;2.22;;;;;;;19.90;35.46;93966.28;4995133;28;20111;-73
2024/03/20 02:21:28;;;;;;;2.85;2.55;;;;;;;19.93;35.32;93979.84;4993545;28;20053;-74
2024/03/20 02:23:53;;;;;;;2.88;2.42;;;;;;;19.93;35.16;93970.97;4999293;28;20052;-75
2024/03/20 02:26:19;;;;;;;2.83;2.58;;;;;;;19.98;35.59;93978.75;4999266;28;20026;-75
2024/03/20 02:28:45;;;;;;;3.00;2.30;;;;;;;19.95;34.92;93974.06;5000519;28;20142;-74
2024/03/20 02:31:15;;;;;;;2.67;2.38;;;;;;;19.93;35.44;93979.84;4997641;28;20092;-75
2024/03/20 02:33:41;;;;;;;2.53;2.30;;;;;;;19.93;35.44;93977.16;4997548;28;20074;-75
2024/03/20 02:36:07;;;;;;;3.35;2.75;;;;;;;19.91;35.17;93973.25;4996051;28;20153;-73
2024/03/20 02:38:38;;;;;;;3.10;2.03;;;;;;;19.86;35.02;93957.38;5012504;28;20034;-73
2024/03/20 02:41:06;;;;;;;2.80;2.10;;;;;;;19.95;35.51;93971.38;4996261;28;20090;-74
2024/03/20 02:43:32;;;;;;;2.10;1.90;;;;;;;19.95;35.23;93976.75;4996013;28;20111;-74
2024/03/20 02:45:58;;;;;;;2.33;2.03;;;;;;;19.94;35.07;93972.53;4969466;28;20042;-73
2024/03/20 02:48:24;;;;;;;2.40;2.20;;;;;;;19.90;35.39;93972.47;4966055;28;20857;-74
2024/03/20 02:50:49;;;;;;;2.90;2.40;;;;;;;19.93;34.81;93970.97;4980325;28;20050;-73
2024/03/20 02:53:15;;;;;;;2.13;1.92;;;;;;;19.96;34.93;93970.22;4986383;28;20030;-74
2024/03/20 02:55:43;;;;;;;2.90;1.98;;;;;;;19.96;35.21;93981.03;4988929;28;20039;-73
2024/03/20 02:58:10;;;;;;;3.00;2.08;;;;;;;19.90;35.21;93961.69;4987498;28;20106;-73
2024/03/20 03:00:36;;;;;;;2.90;2.60;;;;;;;19.89;35.28;93964.75;4970000;28;20136;-72
2024/03/20 03:03:02;;;;;;;3.35;2.17;;;;;;;19.98;35.00;93976.03;4987988;28;20054;-73
2024/03/20 03:05:29;;;;;;;2.38;2.03;;;;;;;19.95;35.12;93969.44;4985609;28;20042;-72
2024/03/20 03:07:54;;;;;;;2.33;2.03;;;;;;;19.96;35.14;93981.03;4986556;28;20031;-73
2024/03/20 03:10:22;;;;;;;2.78;2.33;;;;;;;19.95;35.17;93982.16;4990146;28;20049;-73
2024/03/20 03:12:48;;;;;;;2.45;2.13;;;;;;;19.97;35.00;93979.88;4987996;28;20038;-72
2024/03/20 03:15:13;;;;;;;3.45;2.97;;;;;;;19.78;34.77;93969.25;4999481;28;20034;-73
2024/03/20 03:17:44;;;;;;;2.35;2.15;;;;;;;19.96;35.01;93981.03;5008890;28;20038;-71
2024/03/20 03:20:16;;;;;;;2.83;2.08;;;;;;;19.98;35.11;93990.31;5006754;28;20084;-73
2024/03/20 03:22:42;;;;;;;2.95;2.30;;;;;;;19.89;34.98;93978.25;4968673;28;20274;-74
2024/03/20 03:25:08;;;;;;;2.40;2.15;;;;;;;19.93;34.97;93981.78;4987217;28;20053;-74
2024/03/20 03:27:35;;;;;;;2.83;2.25;;;;;;;19.96;35.12;93991.81;5000806;28;20030;-74
2024/03/20 03:30:02;;;;;;;3.45;2.33;;;;;;;19.89;35.00;93983.66;5000239;28;20049;-73
2024/03/20 03:32:28;;;;;;;2.38;2.17;;;;;;;19.84;35.22;93978.59;4997056;28;20014;-74
2024/03/20 03:34:53;;;;;;;3.03;2.20;;;;;;;19.92;35.02;93997.19;4987802;28;20077;-73
2024/03/20 03:37:19;;;;;;;3.75;2.05;;;;;;;19.89;35.35;93997.94;4977263;28;20117;-73
2024/03/20 03:39:44;;;;;;;2.22;1.90;;;;;;;19.91;35.09;93997.53;4976561;28;20061;-74
2024/03/20 03:42:14;;;;;;;2.70;1.83;;;;;;;19.91;35.12;94009.13;4961996;28;20039;-74
2024/03/20 03:44:40;;;;;;;2.78;2.40;;;;;;;19.89;34.83;94011.44;4961015;28;20064;-74
2024/03/20 03:47:06;;;;;;;2.78;2.05;;;;;;;19.87;34.80;94010.22;4983010;28;20034;-75
2024/03/20 03:49:32;;;;;;;2.13;1.92;;;;;;;19.83;35.17;94009.41;4995665;28;20054;-72
2024/03/20 03:51:57;;;;;;;2.75;2.25;;;;;;;19.85;34.68;94012.53;5000202;28;20042;-73
2024/03/20 03:54:23;;;;;;;2.72;2.28;;;;;;;19.82;34.67;94018.63;4997655;28;20048;-73
2024/03/20 03:56:48;;;;;;;3.13;2.28;;;;;;;19.79;35.10;94013.97;4994128;28;21055;-72
2024/03/20 03:59:14;;;;;;;2.60;2.40;;;;;;;19.77;34.82;94021.66;4962671;28;20034;-73
2024/03/20 04:01:40;;;;;;;2.92;2.40;;;;;;;19.75;34.76;94019.31;4980335;28;20078;-74
2024/03/20 04:04:05;;;;;;;2.70;2.22;;;;;;;19.73;34.80;94022.41;4993607;28;20061;-73
2024/03/20 04:06:31;;;;;;;2.35;1.88;;;;;;;19.68;34.69;94019.25;4998213;28;20038;-73
2024/03/20 04:08:56;;;;;;;3.00;2.05;;;;;;;19.72;34.79;94031.63;4978654;28;20034;-73
2024/03/20 04:11:23;;;;;;;2.08;1.90;;;;;;;19.71;34.96;94027.38;4978718;28;20041;-74
2024/03/20 04:13:49;;;;;;;1.95;1.70;;;;;;;19.68;35.02;94025.41;4979637;28;20566;-74
2024/03/20 04:16:15;;;;;;;2.58;2.38;;;;;;;19.63;34.76;94023.03;4978824;28;20132;-74
2024/03/20 04:18:40;;;;;;;3.25;2.00;;;;;;;19.64;34.71;94024.59;4977247;28;20050;-74
2024/03/20 04:21:06;;;;;;;2.90;2.40;;;;;;;19.64;34.60;94024.59;4975666;28;20310;-75
2024/03/20 04:23:34;;;;;;;3.10;2.20;;;;;;;19.68;34.88;94035.44;4975437;28;20030;-74
2024/03/20 04:26:00;;;;;;;3.08;2.40;;;;;;;19.70;34.97;94022.34;4972774;28;20469;-73
2024/03/20 04:28:25;;;;;;;2.53;2.20;;;;;;;19.67;35.03;94023.06;4972802;28;20042;-73
2024/03/20 04:30:52;;;;;;;4.18;2.53;;;;;;;19.59;34.74;94006.03;4971086;28;20046;-73
2024/03/20 04:33:18;;;;;;;2.90;2.58;;;;;;;19.73;34.81;94025.09;4971856;28;20118;-73
2024/03/20 04:35:43;;;;;;;2.45;2.10;;;;;;;19.73;34.75;94025.09;4970843;28;20094;-74
2024/03/20 04:38:09;;;;;;;3.05;2.40;;;;;;;19.64;34.71;94013.81;4973964;28;20528;-75
2024/03/20 04:40:34;;;;;;;2.33;2.13;;;;;;;19.74;34.69;94026.66;4974581;28;21001;-74
2024/03/20 04:43:00;;;;;;;3.42;2.67;;;;;;;19.80;34.50;94043.28;4970446;28;20329;-72
2024/03/20 04:45:25;;;;;;;2.50;2.28;;;;;;;19.78;34.71;94040.19;4973042;28;20516;-76
2024/03/20 04:47:54;;;;;;;2.40;1.92;;;;;;;19.81;34.74;94049.47;4974955;28;20106;-77
2024/03/20 04:50:20;;;;;;;2.83;2.53;;;;;;;19.78;34.65;94045.59;4994504;28;20038;-75
2024/03/20 04:52:46;;;;;;;3.13;2.30;;;;;;;19.77;34.69;94049.41;4977462;28;20046;-77
2024/03/20 04:55:11;;;;;;;2.53;2.33;;;;;;;19.80;34.60;94048.69;4976586;28;20104;-76
2024/03/20 04:57:37;;;;;;;2.50;2.13;;;;;;;19.78;34.96;94050.19;4995042;28;20405;-76
2024/03/20 05:00:21;;;;;;;2.83;2.22;;;;;;;19.82;34.84;94059.13;4976182;28;20072;-76
2024/03/20 05:02:47;;;;;;;2.55;2.35;;;;;;;19.73;35.06;94041.28;4974290;28;20053;-76
2024/03/20 05:05:13;;;;;;;3.00;2.40;;;;;;;19.82;35.36;94056.41;4975236;28;20040;-75
2024/03/20 05:07:41;;;;;;;2.50;2.30;;;;;;;19.80;34.87;94069.53;4975717;28;20046;-77
2024/03/20 05:10:07;;;;;;;2.78;2.42;;;;;;;19.87;34.74;94061.50;4990898;28;20611;-75
2024/03/20 05:12:32;;;;;;;2.30;1.88;;;;;;;19.82;35.05;94059.13;4979108;28;20092;-74
2024/03/20 05:14:59;;;;;;;2.65;2.17;;;;;;;19.86;35.06;94076.13;4976004;28;20038;-73
2024/03/20 05:17:27;;;;;;;3.38;2.80;;;;;;;19.90;35.63;94076.94;4993046;28;20274;-74
2024/03/20 05:19:53;;;;;;;2.83;2.22;;;;;;;19.79;34.55;94054.47;4975456;28;20037;-73
2024/03/20 05:22:18;;;;;;;3.00;2.60;;;;;;;19.84;35.50;94062.25;4993462;28;20428;-73
2024/03/20 05:24:51;;;;;;;2.28;2.08;;;;;;;19.72;35.80;94063.22;4992136;28;20050;-73
2024/03/20 05:27:17;;;;;;;2.90;2.60;;;;;;;19.99;34.86;94082.88;4988557;28;20741;-73
2024/03/20 05:29:43;;;;;;;2.88;2.58;;;;;;;20.00;35.36;94084.41;4971945;28;20049;-75
2024/03/20 05:32:08;;;;;;;2.95;2.30;;;;;;;19.89;35.72;94075.41;4994608;28;20061;-74
2024/03/20 05:34:34;;;;;;;2.88;2.42;;;;;;;19.92;35.74;94083.56;4994278;28;20046;-76
2024/03/20 05:37:00;;;;;;;2.60;2.38;;;;;;;;;;4976362;28;20521;-74
2024/03/20 05:39:25;;;;;;;2.38;2.17;;;;;;;20.01;35.00;94081.38;4993082;28;20053;-74
2024/03/20 05:41:52;;;;;;;3.42;2.22;;;;;;;20.03;34.80;94083.72;4996077;28;20287;-74
2024/03/20 05:44:17;;;;;;;3.63;2.42;;;;;;;20.13;35.45;94091.16;4993143;28;20556;-73
2024/03/20 05:46:44;;;;;;;3.35;2.72;;;;;;;20.16;35.46;94109.31;4995154;28;20160;-74
2024/03/20 05:49:11;;;;;;;2.75;2.30;;;;;;;20.11;35.27;94096.16;4993668;28;20108;-73
2024/03/20 05:51:36;;;;;;;2.88;2.10;;;;;;;20.23;35.73;94114.84;4995119;28;20125;-75
2024/03/20 05:54:02;;;;;;;2.30;2.10;;;;;;;20.23;35.56;94104.06;4992165;28;20114;-75
2024/03/20 05:56:28;;;;;;;2.63;2.42;;;;;;;20.19;35.72;94103.22;4978642;28;20029;-75
2024/03/20 05:58:53;;;;;;;3.95;2.38;;;;;;;20.25;35.82;94117.19;4993963;28;20033;-76
2024/03/20 06:01:19;;;;;;;3.35;1.98;;;;;;;20.30;35.86;94123.03;4982031;28;20392;-75
2024/03/20 06:03:44;;;;;;;3.85;2.50;;;;;;;20.29;35.64;94121.47;4998578;28;20050;-73
2024/03/20 06:06:10;;;;;;;4.85;2.50;;;;;;;20.42;35.47;94120.13;4996543;28;20057;-76
2024/03/20 06:08:35;;;;;;;5.45;2.50;;;;;;;20.38;35.75;94126.63;4995532;28;20034;-76
2024/03/20 06:11:04;;;;;;;3.60;2.55;;;;;;;20.43;36.20;94124.38;4997994;28;20500;-75
2024/03/20 06:13:30;;;;;;;2.58;2.10;;;;;;;20.49;35.75;94122.09;4982495;28;20061;-75
2024/03/20 06:15:59;;;;;;;5.25;2.63;;;;;;;20.45;36.33;94122.06;4997881;28;20049;-74
2024/03/20 06:18:24;;;;;;;3.47;2.15;;;;;;;20.49;36.33;94105.91;4996408;28;20053;-74
2024/03/20 06:20:50;;;;;;;3.72;2.63;;;;;;;20.41;35.75;94099.66;4998070;28;20041;-74
2024/03/20 06:23:16;;;;;;;2.58;2.30;;;;;;;20.51;35.76;94120.59;4996278;28;20473;-74
2024/03/20 06:25:41;;;;;;;3.28;2.50;;;;;;;20.57;35.72;94140.75;5000345;28;20064;-75
2024/03/20 06:28:07;;;;;;;2.58;2.05;;;;;;;20.58;36.00;94136.13;4982022;28;20097;-75
2024/03/20 06:30:32;;;;;;;3.67;2.15;;;;;;;20.62;36.03;94144.28;4996372;28;20084;-77
2024/03/20 06:32:58;;;;;;;2.70;2.30;;;;;;;20.59;36.21;94145.78;4989905;28;20411;-77
2024/03/20 06:35:24;;;;;;;2.45;2.20;;;;;;;20.64;36.23;94147.38;4998992;28;20038;-76
2024/03/20 06:37:49;;;;;;;3.15;2.08;;;;;;;20.60;36.09;94142.72;4982500;28;20026;-76
2024/03/20 06:40:16;;;;;;;3.05;2.50;;;;;;;20.50;36.17;94135.25;4982256;28;20061;-76
2024/03/20 06:42:42;;;;;;;2.63;2.35;;;;;;;20.58;35.33;94158.50;4986449;28;20160;-76
2024/03/20 06:45:08;;;;;;;4.55;2.50;;;;;;;20.56;35.57;94160.03;4999372;28;20512;-76
2024/03/20 06:47:35;;;;;;;2.67;2.22;;;;;;;20.60;35.64;94171.66;4997454;28;20044;-77
2024/03/20 06:50:02;;;;;;;4.53;2.53;;;;;;;20.60;35.86;94161.63;5000926;28;20411;-77
2024/03/20 06:52:28;;;;;;;3.35;2.35;;;;;;;20.59;36.29;94160.06;4998341;28;20068;-76
2024/03/20 06:54:54;;;;;;;4.10;2.20;;;;;;;20.59;36.45;94170.88;4998419;28;20041;-75
2024/03/20 06:57:20;;;;;;;5.28;1.85;;;;;;;20.57;36.16;94183.22;4978016;28;20038;-76
2024/03/20 06:59:48;;;;;;;5.22;2.40;;;;;;;20.51;35.93;94158.44;4998496;28;20046;-77
2024/03/20 07:02:15;;;;;;;3.13;2.50;;;;;;;20.59;35.94;94184.38;4999401;28;20249;-77
2024/03/20 07:04:40;;;;;;;3.05;2.30;;;;;;;20.58;35.79;94190.94;4998223;28;20680;-76
2024/03/20 07:07:07;;;;;;;3.30;2.33;;;;;;;20.49;35.75;94163.41;4996428;28;20046;-75
2024/03/20 07:09:34;;;;;;;3.13;2.40;;;;;;;20.50;36.05;94169.59;4992718;28;20045;-76
2024/03/20 07:12:00;;;;;;;5.18;2.13;;;;;;;20.59;36.05;94176.28;4980171;28;20050;-76
2024/03/20 07:14:28;;;;;;;2.65;2.42;;;;;;;20.67;35.25;94174.47;4995280;28;20436;-75
2024/03/20 07:16:54;;;;;;;2.60;2.25;;;;;;;20.67;35.26;94179.09;4976296;28;20030;-77
2024/03/20 07:19:20;;;;;;;9.02;3.85;;;;;;;20.54;35.84;94168.50;4975518;28;20103;-76
2024/03/20 07:21:45;;;;;;;3.53;2.22;;;;;;;20.65;35.53;94178.66;4973605;28;20408;-76
2024/03/20 07:24:15;;;;;;;3.20;2.42;;;;;;;20.60;35.87;94169.72;4997136;28;20042;-77
2024/03/20 07:26:41;;;;;;;2.45;2.15;;;;;;;20.67;35.77;94184.47;4997920;28;20060;-76
2024/03/20 07:29:09;;;;;;;3.03;2.35;;;;;;;20.67;35.75;94181.78;4999835;28;20053;-76
2024/03/20 07:31:39;;;;;;;2.55;2.10;;;;;;;20.67;35.59;94181.78;4999064;28;20046;-76
2024/03/20 07:34:06;;;;;;;2.50;2.13;;;;;;;20.64;35.69;94177.09;4996637;28;20046;-76
2024/03/20 07:36:36;;;;;;;2.72;2.00;;;;;;;20.67;35.73;94177.16;4973885;28;20419;-77
2024/03/20 07:39:04;;;;;;;3.60;3.05;;;;;;;20.66;35.79;94174.81;4994615;28;20037;-77
2024/03/20 07:41:30;;;;;;;2.55;2.25;;;;;;;20.69;35.86;94180.25;4997268;28;20058;-76
2024/03/20 07:43:56;;;;;;;3.17;2.45;;;;;;;20.68;35.72;94169.84;4995956;28;20160;-76
2024/03/20 07:46:22;;;;;;;2.63;2.00;;;;;;;20.69;35.97;94174.06;4980790;28;20527;-76
2024/03/20 07:48:49;;;;;;;2.97;2.53;;;;;;;20.69;35.84;94174.06;4977584;28;20053;-76
2024/03/20 07:51:16;;;;;;;2.78;2.47;;;;;;;20.65;35.76;94167.84;4976997;28;20133;-77
2024/03/20 07:53:42;;;;;;;3.15;2.22;;;;;;;20.71;36.11;94177.19;4977643;28;20092;-76
2024/03/20 07:56:08;;;;;;;2.67;2.25;;;;;;;20.70;36.05;94175.63;4976408;28;20719;-76
2024/03/20 07:58:35;;;;;;;2.78;2.55;;;;;;;20.66;36.05;94174.81;4976019;28;20053;-75
2024/03/20 08:01:00;;;;;;;3.22;2.28;;;;;;;20.65;36.11;94175.94;4976824;28;20031;-76
2024/03/20 08:03:27;;;;;;;3.53;2.88;;;;;;;20.66;36.13;94174.81;4976328;28;20053;-76
2024/03/20 08:05:52;;;;;;;4.28;2.88;;;;;;;20.66;36.01;94180.22;4976525;28;20094;-75
2024/03/20 08:08:18;;;;;;;5.00;2.92;;;;;;;20.64;35.64;94185.19;4978857;28;20125;-75
2024/03/20 08:10:45;;;;;;;2.78;2.22;;;;;;;20.68;35.96;94191.44;4976074;28;20039;-75
2024/03/20 08:13:10;;;;;;;2.58;2.13;;;;;;;20.66;35.83;94180.22;4974869;28;20050;-75
2024/03/20 08:15:39;;;;;;;2.20;1.90;;;;;;;20.63;35.82;94176.31;4977202;28;20046;-79
2024/03/20 08:18:05;;;;;;;2.35;2.15;;;;;;;20.70;35.89;94186.44;4980874;28;20378;-75
2024/03/20 08:20:31;;;;;;;3.58;2.40;;;;;;;20.70;35.88;94186.44;4977577;28;20034;-75
2024/03/20 08:22:56;;;;;;;3.03;2.05;;;;;;;20.69;35.75;94176.78;4980991;28;20026;-75
2024/03/20 08:25:22;;;;;;;2.92;2.22;;;;;;;20.72;35.68;94173.34;4980599;28;20042;-75
2024/03/20 08:27:48;;;;;;;4.57;2.20;;;;;;;20.72;35.74;94170.66;4993913;28;20053;-75
2024/03/20 08:30:13;;;;;;;2.28;2.08;;;;;;;20.75;35.81;94169.91;4975708;28;20082;-74
2024/03/20 08:32:39;;;;;;;2.55;2.30;;;;;;;20.77;35.56;94167.63;4982232;28;20026;-75
2024/03/20 08:35:07;;;;;;;3.05;2.20;;;;;;;20.70;35.48;94159.41;4977307;28;20085;-75
2024/03/20 08:37:33;;;;;;;2.45;2.25;;;;;;;20.77;35.66;94165.69;4980213;28;20092;-76
2024/03/20 08:40:01;;;;;;;4.32;2.55;;;;;;;20.78;35.75;94167.22;4980886;28;20045;-76
2024/03/20 08:42:30;;;;;;;2.50;2.30;;;;;;;20.76;35.45;94166.06;4981010;28;20050;-75
2024/03/20 08:44:56;;;;;;;3.67;2.85;;;;;;;20.79;35.65;94168.00;4980921;28;20035;-75
2024/03/20 08:47:21;;;;;;;2.70;2.38;;;;;;;20.81;35.75;94171.13;4985464;28;20037;-76
2024/03/20 08:49:47;;;;;;;2.78;2.15;;;;;;;20.73;35.53;94154.03;4989301;28;20492;-75
2024/03/20 08:52:13;;;;;;;3.17;2.67;;;;;;;20.79;35.51;94168.00;4989971;28;20042;-77
2024/03/20 08:54:43;;;;;;;3.03;2.53;;;;;;;20.79;35.19;94159.91;4991109;28;20547;-75
2024/03/20 08:57:11;;;;;;;3.40;2.58;;;;;;;20.79;35.84;94157.97;5007545;28;20042;-76
2024/03/20 08:59:37;;;;;;;2.75;2.03;;;;;;;20.86;35.59;94162.69;4988994;28;20050;-75
2024/03/20 09:02:03;;;;;;;2.83;2.20;;;;;;;20.84;35.40;94159.56;4991424;28;20046;-76
2024/03/20 09:04:29;;;;;;;3.35;2.40;;;;;;;20.81;35.74;94152.22;4991715;28;20050;-76
2024/03/20 09:06:57;;;;;;;2.67;2.30;;;;;;;20.82;35.64;94162.66;4981993;28;20496;-76
2024/03/20 09:09:22;;;;;;;2.40;2.20;;;;;;;20.87;35.55;94169.69;4980703;28;20053;-76
2024/03/20 09:11:48;;;;;;;2.75;2.53;;;;;;;20.86;35.70;94168.09;4982083;28;20587;-76
2024/03/20 09:14:14;;;;;;;5.45;2.65;;;;;;;20.86;35.51;94162.69;4985705;28;20045;-76
2024/03/20 09:16:40;;;;;;;2.85;2.13;;;;;;;20.57;35.81;94124.53;4980811;28;20051;-77
2024/03/20 09:19:05;;;;;;;2.90;2.28;;;;;;;20.83;35.87;94164.19;4984164;28;20043;-77
2024/03/20 09:21:34;;;;;;;3.05;2.30;;;;;;;20.85;36.07;94156.50;4985453;28;20516;-75
2024/03/20 09:24:00;;;;;;;2.97;2.60;;;;;;;20.89;35.94;94167.38;4984811;28;20050;-75
2024/03/20 09:26:26;;;;;;;2.75;2.10;;;;;;;20.74;35.98;94144.00;4983534;28;20081;-77
2024/03/20 09:28:51;;;;;;;3.85;2.50;;;;;;;20.84;36.30;94154.16;4982742;28;20022;-76
2024/03/20 09:31:17;;;;;;;2.30;2.03;;;;;;;20.92;36.30;94156.59;4986035;28;20057;-76
2024/03/20 09:33:42;;;;;;;3.35;2.22;;;;;;;20.87;36.13;94153.47;4982044;28;20042;-76
2024/03/20 09:36:08;;;;;;;2.80;2.28;;;;;;;20.89;36.28;94151.16;4977091;28;20432;-76
2024/03/20 09:38:33;;;;;;;4.22;1.95;;;;;;;20.93;36.09;94152.75;4977740;28;20113;-75
2024/03/20 09:40:59;;;;;;;4.07;2.20;;;;;;;20.86;36.30;94135.66;4984327;28;20026;-75
2024/03/20 09:43:25;;;;;;;5.38;2.70;;;;;;;20.95;36.15;94150.47;4980662;28;20161;-74
2024/03/20 09:45:53;;;;;;;4.10;2.58;;;;;;;20.94;36.01;94148.13;4981064;28;20045;-75
2024/03/20 09:48:19;;;;;;;3.72;2.10;;;;;;;20.95;36.08;94152.41;4980386;28;20053;-74
2024/03/20 09:50:45;;;;;;;3.83;2.58;;;;;;;20.94;36.34;94140.81;4998014;28;20542;-76
2024/03/20 09:53:10;;;;;;;5.40;2.58;;;;;;;20.93;36.17;94144.66;4998842;28;20060;-74
2024/03/20 09:55:41;;;;;;;4.15;2.40;;;;;;;20.93;35.94;94146.56;4983201;28;20037;-76
2024/03/20 09:58:14;;;;;;;2.95;2.63;;;;;;;20.91;36.22;94138.06;5000481;28;20040;-76
2024/03/20 10:00:40;;;;;;;2.67;2.25;;;;;;;20.91;36.31;94143.47;4974127;28;20038;-76
2024/03/20 10:03:08;;;;;;;2.42;2.17;;;;;;;20.93;36.22;94143.88;4998507;28;20049;-76
2024/03/20 10:05:33;;;;;;;3.00;2.70;;;;;;;20.97;35.95;94142.00;4984283;28;20691;-75
2024/03/20 10:07:59;;;;;;;3.38;2.55;;;;;;;20.96;36.14;94129.63;4999089;28;20029;-75
2024/03/20 10:10:24;;;;;;;2.83;2.53;;;;;;;20.96;36.09;94135.03;4998158;28;20102;-75
2024/03/20 10:12:50;;;;;;;3.10;2.42;;;;;;;20.99;36.37;94140.47;4983361;28;20084;-75
2024/03/20 10:15:25;;;;;;;2.92;2.47;;;;;;;20.96;35.88;94133.09;4999891;28;20038;-75
2024/03/20 10:17:50;;;;;;;3.92;2.45;;;;;;;21.01;36.12;94137.41;4980594;28;20076;-75
2024/03/20 10:20:19;;;;;;;3.38;2.75;;;;;;;20.95;36.13;94115.31;4997528;28;20069;-76
2024/03/20 10:22:45;;;;;;;2.88;2.22;;;;;;;21.00;36.19;94125.03;4994234;28;20046;-76
2024/03/20 10:25:13;;;;;;;2.45;2.10;;;;;;;20.99;36.01;94124.25;4992898;28;20712;-76
2024/03/20 10:27:40;;;;;;;2.65;2.40;;;;;;;21.00;36.15;94123.09;4978617;28;20044;-76
2024/03/20 10:30:14;;;;;;;2.55;2.33;;;;;;;21.02;36.14;94120.03;4974411;28;20133;-75
2024/03/20 10:32:54;;;;;;;3.25;2.25;;;;;;;20.99;36.14;94109.94;4990499;28;20076;-76
2024/03/20 10:35:23;;;;;;;3.25;2.67;;;;;;;20.99;36.11;94116.13;4992184;28;20492;-76
2024/03/20 10:37:49;;;;;;;2.75;2.28;;;;;;;20.98;36.11;94108.38;4973226;28;20050;-75
2024/03/20 10:40:19;;;;;;;2.78;2.45;;;;;;;21.01;36.10;94115.78;4993129;28;20443;-75
2024/03/20 10:42:47;;;;;;;2.63;2.03;;;;;;;21.00;36.06;94116.91;4995577;28;20041;-75
2024/03/20 10:45:13;;;;;;;2.67;2.10;;;;;;;20.99;36.14;94110.72;4993754;28;20069;-75
2024/03/20 10:47:44;;;;;;;2.92;2.40;;;;;;;21.02;36.25;94117.34;4998415;28;20036;-77
2024/03/20 10:50:18;;;;;;;4.18;2.85;;;;;;;21.02;36.10;94111.94;4996808;28;20045;-76
2024/03/20 10:52:51;;;;;;;2.10;1.73;;;;;;;21.03;35.99;94100.72;4996882;28;20061;-76
2024/03/20 10:55:19;;;;;;;2.50;2.28;;;;;;;21.04;36.14;94104.19;4997026;28;20034;-75
2024/03/20 10:57:49;;;;;;;6.18;2.20;;;;;;;21.05;36.02;94104.97;4984668;28;20046;-75
2024/03/20 11:00:19;;;;;;;2.85;2.42;;;;;;;20.99;35.72;94093.72;4981503;28;20522;-76
2024/03/20 11:02:46;;;;;;;3.53;3.13;;;;;;;21.07;35.86;94098.03;4982241;28;20121;-75
2024/03/20 11:05:34;;;;;;;2.15;1.83;;;;;;;21.08;35.97;94099.59;4999489;28;20621;-75
2024/03/20 11:08:00;;;;;;;2.28;2.08;;;;;;;21.08;35.86;94099.59;4996804;28;20054;-75
2024/03/20 11:10:28;;;;;;;2.47;2.03;;;;;;;21.08;35.83;94094.19;4996548;28;20120;-75
2024/03/20 11:12:55;;;;;;;2.42;2.10;;;;;;;21.08;35.71;94088.78;5001553;28;20536;-76
2024/03/20 11:15:26;;;;;;;2.15;2.00;;;;;;;21.03;35.68;94081.78;4975733;28;20042;-75
2024/03/20 11:17:52;;;;;;;2.40;2.20;;;;;;;21.03;35.65;94086.41;5000657;28;20045;-76
2024/03/20 11:20:33;;;;;;;3.55;2.50;;;;;;;21.11;35.88;94088.06;5001458;28;20101;-76
2024/03/20 11:23:06;;;;;;;2.88;2.10;;;;;;;21.13;35.64;94091.16;4997882;28;20042;-76
2024/03/20 11:25:35;;;;;;;2.10;1.90;;;;;;;21.14;35.58;94079.19;5004350;28;20095;-76
2024/03/20 11:28:01;;;;;;;4.68;2.30;;;;;;;21.10;35.78;94085.72;5000672;28;20037;-76
2024/03/20 11:30:27;;;;;;;2.90;2.20;;;;;;;21.06;35.68;94074.88;4999348;28;20046;-75
2024/03/20 11:32:53;;;;;;;2.45;2.25;;;;;;;21.14;35.69;94092.72;5002964;28;20045;-76
2024/03/20 11:35:19;;;;;;;3.00;2.63;;;;;;;21.14;35.69;94087.28;4996819;28;20034;-76
2024/03/20 11:37:45;;;;;;;3.30;2.50;;;;;;;21.16;35.86;94079.59;5000862;28;20034;-75